Flight Briefing for CPX203

Departure Arrival
Miami International Airport (KMIA)
Click to view FAA NOTAMS
Chicago/Rockford International Airport (KRFD)
Click to view FAA NOTAMS
Departure Time Arrival Time
N/A N/A
Aircraft Distance
B767-300BDSF 1139nm
Departure METAR Arrival METAR
KMIA 252253Z 12010KT 10SM FEW025 FEW042 FEW250 25/19 A3002 RMK AO2 SLP164 T02500194 KRFD 252254Z 06007KT 10SM FEW250 07/M14 A3033 RMK AO2 SLP276 T00671139
Suggested Route
WINCO2 WINCO J73 LAL CTY J91 ATL VARNM GLAZR Q118 HEVAN Q118 MZZ JOT


View recent IFR Routes data
Notes



Charts and Procedures

Charts for KMIA
No chart available
Charts for KRFD
No chart available

Windy.com Weather Map